sensor_id;sensor_type;location;lat;lon;timestamp;pressure;altitude;pressure_sealevel;temperature;humidity
7180;BME280;3631;42.152;24.756;2022-09-09T00:00:27;99575.97;;;19.26;100.00
7180;BME280;3631;42.152;24.756;2022-09-09T00:03:03;99573.34;;;19.26;100.00
7180;BME280;3631;42.152;24.756;2022-09-09T00:05:38;99579.81;;;19.20;100.00
7180;BME280;3631;42.152;24.756;2022-09-09T00:08:14;99584.63;;;19.28;100.00
7180;BME280;3631;42.152;24.756;2022-09-09T00:10:44;99580.91;;;19.30;99.97
7180;BME280;3631;42.152;24.756;2022-09-09T00:13:16;99583.53;;;19.30;98.56
7180;BME280;3631;42.152;24.756;2022-09-09T00:15:52;99589.66;;;19.31;97.62
7180;BME280;3631;42.152;24.756;2022-09-09T00:18:25;99583.84;;;19.40;96.79
7180;BME280;3631;42.152;24.756;2022-09-09T00:20:58;99583.38;;;19.33;95.88
7180;BME280;3631;42.152;24.756;2022-09-09T00:23:35;99582.50;;;19.33;96.06
7180;BME280;3631;42.152;24.756;2022-09-09T00:26:08;99581.50;;;19.21;96.56
7180;BME280;3631;42.152;24.756;2022-09-09T00:28:41;99583.09;;;19.23;96.42
7180;BME280;3631;42.152;24.756;2022-09-09T00:31:13;99587.25;;;19.28;95.55
7180;BME280;3631;42.152;24.756;2022-09-09T00:33:41;99589.47;;;19.34;94.90
7180;BME280;3631;42.152;24.756;2022-09-09T00:36:13;99608.06;;;19.45;94.77
7180;BME280;3631;42.152;24.756;2022-09-09T00:38:46;99600.66;;;19.37;95.26
7180;BME280;3631;42.152;24.756;2022-09-09T00:41:19;99602.94;;;19.29;96.05
7180;BME280;3631;42.152;24.756;2022-09-09T00:43:56;99597.97;;;19.25;96.51
7180;BME280;3631;42.152;24.756;2022-09-09T00:46:45;99582.94;;;19.12;98.36
7180;BME280;3631;42.152;24.756;2022-09-09T00:49:24;99588.03;;;19.01;99.67
7180;BME280;3631;42.152;24.756;2022-09-09T00:52:02;99588.28;;;18.97;99.78
7180;BME280;3631;42.152;24.756;2022-09-09T00:54:43;99594.31;;;18.99;99.17
7180;BME280;3631;42.152;24.756;2022-09-09T00:57:23;99594.13;;;19.02;99.88
7180;BME280;3631;42.152;24.756;2022-09-09T00:59:52;99596.00;;;19.00;99.76
7180;BME280;3631;42.152;24.756;2022-09-09T01:02:27;99579.69;;;18.80;100.00
7180;BME280;3631;42.152;24.756;2022-09-09T01:04:58;99597.06;;;18.83;100.00
7180;BME280;3631;42.152;24.756;2022-09-09T01:07:26;99607.09;;;18.76;100.00
7180;BME280;3631;42.152;24.756;2022-09-09T01:09:57;99597.59;;;18.74;100.00
7180;BME280;3631;42.152;24.756;2022-09-09T01:12:30;99597.34;;;18.78;100.00
7180;BME280;3631;42.152;24.756;2022-09-09T01:15:10;99599.03;;;18.79;100.00
7180;BME280;3631;42.152;24.756;2022-09-09T01:17:48;99593.94;;;18.76;100.00
7180;BME280;3631;42.152;24.756;2022-09-09T01:20:21;99591.22;;;18.92;100.00
7180;BME280;3631;42.152;24.756;2022-09-09T01:23:00;99599.56;;;18.99;99.63
7180;BME280;3631;42.152;24.756;2022-09-09T01:28:44;99597.69;;;19.01;97.60
7180;BME280;3631;42.152;24.756;2022-09-09T01:31:15;99599.22;;;18.91;97.46
7180;BME280;3631;42.152;24.756;2022-09-09T01:33:43;99592.25;;;18.90;97.05
7180;BME280;3631;42.152;24.756;2022-09-09T01:36:12;99586.63;;;18.81;97.33
7180;BME280;3631;42.152;24.756;2022-09-09T01:38:42;99588.31;;;18.82;97.14
7180;BME280;3631;42.152;24.756;2022-09-09T01:41:10;99590.78;;;18.71;97.18
7180;BME280;3631;42.152;24.756;2022-09-09T01:43:37;99596.66;;;18.75;97.26
7180;BME280;3631;42.152;24.756;2022-09-09T01:46:04;99593.38;;;18.85;96.71
7180;BME280;3631;42.152;24.756;2022-09-09T01:48:31;99596.66;;;18.89;96.08
7180;BME280;3631;42.152;24.756;2022-09-09T01:50:58;99583.44;;;18.91;96.19
7180;BME280;3631;42.152;24.756;2022-09-09T01:53:25;99581.19;;;18.84;94.63
7180;BME280;3631;42.152;24.756;2022-09-09T01:56:00;99580.88;;;18.89;93.66
7180;BME280;3631;42.152;24.756;2022-09-09T01:58:40;99588.78;;;18.89;92.37
7180;BME280;3631;42.152;24.756;2022-09-09T02:01:17;99588.78;;;18.89;91.01
7180;BME280;3631;42.152;24.756;2022-09-09T02:03:52;99589.63;;;18.90;90.90
7180;BME280;3631;42.152;24.756;2022-09-09T02:06:26;99592.34;;;18.88;91.21
7180;BME280;3631;42.152;24.756;2022-09-09T02:08:56;99581.56;;;18.78;90.71
7180;BME280;3631;42.152;24.756;2022-09-09T02:11:26;99589.72;;;18.88;91.17
7180;BME280;3631;42.152;24.756;2022-09-09T02:13:59;99584.19;;;18.93;91.12
7180;BME280;3631;42.152;24.756;2022-09-09T02:16:30;99587.44;;;18.96;91.18
7180;BME280;3631;42.152;24.756;2022-09-09T02:19:02;99567.47;;;18.79;91.59
7180;BME280;3631;42.152;24.756;2022-09-09T02:21:34;99563.06;;;18.80;91.88
7180;BME280;3631;42.152;24.756;2022-09-09T02:24:04;99586.63;;;18.96;92.17
7180;BME280;3631;42.152;24.756;2022-09-09T02:26:34;99583.03;;;18.97;92.49
7180;BME280;3631;42.152;24.756;2022-09-09T02:29:07;99579.19;;;18.88;93.88
7180;BME280;3631;42.152;24.756;2022-09-09T02:31:36;99574.25;;;18.83;96.20
7180;BME280;3631;42.152;24.756;2022-09-09T02:34:05;99581.19;;;18.84;97.59
7180;BME280;3631;42.152;24.756;2022-09-09T02:36:37;99584.75;;;18.83;98.19
7180;BME280;3631;42.152;24.756;2022-09-09T02:39:07;99584.94;;;18.80;98.78
7180;BME280;3631;42.152;24.756;2022-09-09T02:41:38;99573.28;;;18.70;99.45
7180;BME280;3631;42.152;24.756;2022-09-09T02:44:10;99587.25;;;18.85;99.59
7180;BME280;3631;42.152;24.756;2022-09-09T02:46:52;99579.00;;;18.77;100.00
7180;BME280;3631;42.152;24.756;2022-09-09T02:49:28;99584.28;;;18.77;100.00
7180;BME280;3631;42.152;24.756;2022-09-09T02:52:01;99591.31;;;18.76;97.54
7180;BME280;3631;42.152;24.756;2022-09-09T02:54:32;99599.97;;;18.78;97.20
7180;BME280;3631;42.152;24.756;2022-09-09T02:57:02;99593.50;;;18.84;96.62
7180;BME280;3631;42.152;24.756;2022-09-09T02:59:33;99594.16;;;18.73;96.80
7180;BME280;3631;42.152;24.756;2022-09-09T03:02:00;99567.97;;;18.42;97.22
7180;BME280;3631;42.152;24.756;2022-09-09T03:04:28;99593.34;;;18.57;96.14
7180;BME280;3631;42.152;24.756;2022-09-09T03:06:55;99598.91;;;18.67;94.99
7180;BME280;3631;42.152;24.756;2022-09-09T03:09:22;99594.41;;;18.69;95.21
7180;BME280;3631;42.152;24.756;2022-09-09T03:11:49;99591.78;;;18.69;95.89
7180;BME280;3631;42.152;24.756;2022-09-09T03:14:16;99589.44;;;18.78;95.33
7180;BME280;3631;42.152;24.756;2022-09-09T03:16:47;99591.13;;;18.79;92.23
7180;BME280;3631;42.152;24.756;2022-09-09T03:19:14;99599.78;;;18.81;92.47
7180;BME280;3631;42.152;24.756;2022-09-09T03:21:41;99601.28;;;18.71;94.15
7180;BME280;3631;42.152;24.756;2022-09-09T03:24:08;99605.19;;;18.64;94.37
7180;BME280;3631;42.152;24.756;2022-09-09T03:26:35;99605.72;;;18.55;94.13
7180;BME280;3631;42.152;24.756;2022-09-09T03:29:03;99611.63;;;18.44;94.97
7180;BME280;3631;42.152;24.756;2022-09-09T03:31:31;99605.69;;;18.41;95.89
7180;BME280;3631;42.152;24.756;2022-09-09T03:34:00;99614.72;;;18.37;97.00
7180;BME280;3631;42.152;24.756;2022-09-09T03:36:27;99610.56;;;18.33;97.34
7180;BME280;3631;42.152;24.756;2022-09-09T03:38:55;99622.31;;;18.27;98.56
7180;BME280;3631;42.152;24.756;2022-09-09T03:41:22;99627.13;;;18.19;100.00
7180;BME280;3631;42.152;24.756;2022-09-09T03:43:49;99626.41;;;18.17;100.00
7180;BME280;3631;42.152;24.756;2022-09-09T03:46:16;99623.03;;;18.15;100.00
7180;BME280;3631;42.152;24.756;2022-09-09T03:48:43;99618.41;;;18.19;100.00
7180;BME280;3631;42.152;24.756;2022-09-09T03:51:12;99626.41;;;18.17;100.00
7180;BME280;3631;42.152;24.756;2022-09-09T03:53:40;99617.47;;;18.20;100.00
7180;BME280;3631;42.152;24.756;2022-09-09T03:56:07;99623.88;;;18.16;100.00
7180;BME280;3631;42.152;24.756;2022-09-09T03:58:35;99617.63;;;18.02;100.00
7180;BME280;3631;42.152;24.756;2022-09-09T04:01:04;99612.69;;;18.12;100.00
7180;BME280;3631;42.152;24.756;2022-09-09T04:03:33;99607.44;;;18.12;100.00
7180;BME280;3631;42.152;24.756;2022-09-09T04:06:04;99611.66;;;18.14;100.00
7180;BME280;3631;42.152;24.756;2022-09-09T04:08:33;99613.34;;;18.16;100.00
7180;BME280;3631;42.152;24.756;2022-09-09T04:11:02;99617.47;;;18.05;100.00
7180;BME280;3631;42.152;24.756;2022-09-09T04:13:31;99617.22;;;17.94;100.00
7180;BME280;3631;42.152;24.756;2022-09-09T04:16:01;99615.88;;;17.87;100.00
7180;BME280;3631;42.152;24.756;2022-09-09T04:18:29;99618.31;;;17.90;100.00
7180;BME280;3631;42.152;24.756;2022-09-09T04:20:56;99619.66;;;17.97;100.00
7180;BME280;3631;42.152;24.756;2022-09-09T04:23:24;99613.03;;;18.06;100.00
7180;BME280;3631;42.152;24.756;2022-09-09T04:25:54;99600.47;;;18.11;100.00
7180;BME280;3631;42.152;24.756;2022-09-09T04:28:23;99598.03;;;18.08;100.00
7180;BME280;3631;42.152;24.756;2022-09-09T04:30:51;99603.69;;;18.16;100.00
7180;BME280;3631;42.152;24.756;2022-09-09T04:33:18;99602.66;;;18.19;100.00
7180;BME280;3631;42.152;24.756;2022-09-09T04:35:46;99614.13;;;18.32;100.00
7180;BME280;3631;42.152;24.756;2022-09-09T04:38:14;99612.72;;;18.40;100.00
7180;BME280;3631;42.152;24.756;2022-09-09T04:40:42;99613.47;;;18.58;100.00
7180;BME280;3631;42.152;24.756;2022-09-09T04:43:10;99612.53;;;18.88;100.00
7180;BME280;3631;42.152;24.756;2022-09-09T04:45:37;99619.94;;;19.23;100.00
7180;BME280;3631;42.152;24.756;2022-09-09T04:48:06;99628.00;;;19.35;100.00
7180;BME280;3631;42.152;24.756;2022-09-09T04:50:33;99628.41;;;19.29;100.00
7180;BME280;3631;42.152;24.756;2022-09-09T04:53:00;99631.50;;;19.21;100.00
7180;BME280;3631;42.152;24.756;2022-09-09T04:55:28;99639.78;;;19.29;100.00
7180;BME280;3631;42.152;24.756;2022-09-09T04:57:55;99640.16;;;19.51;100.00
7180;BME280;3631;42.152;24.756;2022-09-09T05:00:25;99620.44;;;19.71;98.30
7180;BME280;3631;42.152;24.756;2022-09-09T05:02:51;99651.50;;;20.85;92.37
7180;BME280;3631;42.152;24.756;2022-09-09T05:05:18;99648.66;;;22.23;84.23
7180;BME280;3631;42.152;24.756;2022-09-09T05:07:45;99644.00;;;23.62;75.07
7180;BME280;3631;42.152;24.756;2022-09-09T05:10:13;99655.91;;;25.05;67.45
7180;BME280;3631;42.152;24.756;2022-09-09T05:12:42;99665.34;;;26.18;61.19
7180;BME280;3631;42.152;24.756;2022-09-09T05:15:09;99661.47;;;27.07;57.06
7180;BME280;3631;42.152;24.756;2022-09-09T05:17:38;99655.16;;;27.08;56.26
7180;BME280;3631;42.152;24.756;2022-09-09T05:20:06;99664.28;;;27.33;54.95
7180;BME280;3631;42.152;24.756;2022-09-09T05:22:33;99652.63;;;27.71;53.74
7180;BME280;3631;42.152;24.756;2022-09-09T05:25:00;99646.91;;;28.01;51.65
7180;BME280;3631;42.152;24.756;2022-09-09T05:27:26;99657.06;;;28.51;50.07
7180;BME280;3631;42.152;24.756;2022-09-09T05:29:53;99655.34;;;29.45;47.03
7180;BME280;3631;42.152;24.756;2022-09-09T05:32:20;99656.25;;;29.62;45.76
7180;BME280;3631;42.152;24.756;2022-09-09T05:34:48;99662.34;;;29.46;45.72
7180;BME280;3631;42.152;24.756;2022-09-09T05:37:17;99660.13;;;29.84;45.05
7180;BME280;3631;42.152;24.756;2022-09-09T05:39:44;99646.84;;;30.49;42.78
7180;BME280;3631;42.152;24.756;2022-09-09T05:42:11;99667.25;;;30.82;41.64
7180;BME280;3631;42.152;24.756;2022-09-09T05:44:37;99669.94;;;30.25;42.73
7180;BME280;3631;42.152;24.756;2022-09-09T05:47:05;99665.75;;;29.56;43.89
7180;BME280;3631;42.152;24.756;2022-09-09T05:49:33;99661.38;;;29.98;43.75
7180;BME280;3631;42.152;24.756;2022-09-09T05:52:01;99651.72;;;30.70;42.47
7180;BME280;3631;42.152;24.756;2022-09-09T05:54:29;99664.78;;;30.81;41.55
7180;BME280;3631;42.152;24.756;2022-09-09T05:56:56;99665.19;;;31.17;40.80
7180;BME280;3631;42.152;24.756;2022-09-09T05:59:23;99661.25;;;31.44;40.17
7180;BME280;3631;42.152;24.756;2022-09-09T06:01:50;99666.06;;;31.56;39.79
7180;BME280;3631;42.152;24.756;2022-09-09T06:04:17;99661.50;;;31.96;39.38
7180;BME280;3631;42.152;24.756;2022-09-09T06:06:46;99667.03;;;31.94;38.87
7180;BME280;3631;42.152;24.756;2022-09-09T06:09:15;99647.50;;;32.69;37.47
7180;BME280;3631;42.152;24.756;2022-09-09T06:11:42;99640.81;;;32.50;37.60
7180;BME280;3631;42.152;24.756;2022-09-09T06:14:11;99644.19;;;31.36;38.70
7180;BME280;3631;42.152;24.756;2022-09-09T06:16:37;99648.78;;;31.90;38.38
7180;BME280;3631;42.152;24.756;2022-09-09T06:19:04;99647.94;;;33.10;36.29
7180;BME280;3631;42.152;24.756;2022-09-09T06:21:33;99649.38;;;32.68;36.63
7180;BME280;3631;42.152;24.756;2022-09-09T06:24:02;99647.88;;;32.66;36.68
7180;BME280;3631;42.152;24.756;2022-09-09T06:26:31;99637.56;;;32.55;36.80
7180;BME280;3631;42.152;24.756;2022-09-09T06:28:59;99639.78;;;33.33;35.07
7180;BME280;3631;42.152;24.756;2022-09-09T06:31:29;99638.94;;;32.88;34.84
7180;BME280;3631;42.152;24.756;2022-09-09T06:33:58;99641.84;;;32.26;36.06
7180;BME280;3631;42.152;24.756;2022-09-09T06:36:26;99657.44;;;32.00;37.10
7180;BME280;3631;42.152;24.756;2022-09-09T06:38:53;99660.25;;;32.90;36.05
7180;BME280;3631;42.152;24.756;2022-09-09T06:41:22;99667.94;;;34.38;34.04
7180;BME280;3631;42.152;24.756;2022-09-09T06:43:52;99650.94;;;34.38;32.65
7180;BME280;3631;42.152;24.756;2022-09-09T06:46:20;99644.66;;;34.31;32.99
7180;BME280;3631;42.152;24.756;2022-09-09T06:48:47;99655.44;;;34.31;32.97
7180;BME280;3631;42.152;24.756;2022-09-09T06:51:15;99641.44;;;33.63;33.98
7180;BME280;3631;42.152;24.756;2022-09-09T06:53:44;99658.66;;;34.69;32.78
7180;BME280;3631;42.152;24.756;2022-09-09T06:56:19;99663.28;;;35.91;31.05
7180;BME280;3631;42.152;24.756;2022-09-09T06:58:48;99666.97;;;36.78;29.89
7180;BME280;3631;42.152;24.756;2022-09-09T07:01:18;99673.03;;;37.51;29.25
7180;BME280;3631;42.152;24.756;2022-09-09T07:03:47;99665.75;;;38.02;28.35
7180;BME280;3631;42.152;24.756;2022-09-09T07:06:17;99669.00;;;38.18;27.72
7180;BME280;3631;42.152;24.756;2022-09-09T07:08:48;99674.78;;;37.83;28.06
7180;BME280;3631;42.152;24.756;2022-09-09T07:11:16;99666.66;;;37.32;29.13
7180;BME280;3631;42.152;24.756;2022-09-09T07:13:43;99644.59;;;37.15;28.99
7180;BME280;3631;42.152;24.756;2022-09-09T07:16:12;99656.78;;;36.80;29.04
7180;BME280;3631;42.152;24.756;2022-09-09T07:18:41;99659.00;;;36.10;30.20
7180;BME280;3631;42.152;24.756;2022-09-09T07:21:09;99658.09;;;35.77;30.59
7180;BME280;3631;42.152;24.756;2022-09-09T07:23:37;99661.06;;;36.15;30.34
7180;BME280;3631;42.152;24.756;2022-09-09T07:26:08;99664.59;;;37.14;29.81
7180;BME280;3631;42.152;24.756;2022-09-09T07:28:35;99665.38;;;37.92;28.59
7180;BME280;3631;42.152;24.756;2022-09-09T07:31:02;99677.59;;;37.70;28.47
7180;BME280;3631;42.152;24.756;2022-09-09T07:33:30;99674.50;;;38.61;27.64
7180;BME280;3631;42.152;24.756;2022-09-09T07:36:05;99660.34;;;39.45;26.16
7180;BME280;3631;42.152;24.756;2022-09-09T07:38:33;99665.00;;;39.56;26.29
7180;BME280;3631;42.152;24.756;2022-09-09T07:41:04;99662.44;;;39.43;26.02
7180;BME280;3631;42.152;24.756;2022-09-09T07:43:32;99669.28;;;40.23;25.07
7180;BME280;3631;42.152;24.756;2022-09-09T07:46:00;99660.34;;;40.35;24.57
7180;BME280;3631;42.152;24.756;2022-09-09T07:48:28;99662.88;;;40.59;24.51
7180;BME280;3631;42.152;24.756;2022-09-09T07:51:05;99667.75;;;41.27;23.59
7180;BME280;3631;42.152;24.756;2022-09-09T07:53:33;99636.63;;;40.88;23.61
7180;BME280;3631;42.152;24.756;2022-09-09T07:56:06;99656.59;;;40.59;24.14
7180;BME280;3631;42.152;24.756;2022-09-09T07:58:35;99657.84;;;40.75;24.17
7180;BME280;3631;42.152;24.756;2022-09-09T08:01:06;99660.81;;;41.60;23.66
7180;BME280;3631;42.152;24.756;2022-09-09T08:03:33;99658.41;;;42.20;23.12
7180;BME280;3631;42.152;24.756;2022-09-09T08:06:01;99658.22;;;43.10;21.81
7180;BME280;3631;42.152;24.756;2022-09-09T08:08:30;99655.38;;;43.66;21.41
7180;BME280;3631;42.152;24.756;2022-09-09T08:11:04;99658.66;;;43.24;21.51
7180;BME280;3631;42.152;24.756;2022-09-09T08:13:33;99645.50;;;42.99;21.97
7180;BME280;3631;42.152;24.756;2022-09-09T08:16:05;99645.47;;;43.87;20.70
7180;BME280;3631;42.152;24.756;2022-09-09T08:18:33;99648.06;;;42.56;22.08
7180;BME280;3631;42.152;24.756;2022-09-09T08:21:05;99637.44;;;40.77;23.25
7180;BME280;3631;42.152;24.756;2022-09-09T08:23:36;99639.69;;;41.04;23.39
7180;BME280;3631;42.152;24.756;2022-09-09T08:26:04;99631.28;;;40.93;23.41
7180;BME280;3631;42.152;24.756;2022-09-09T08:28:31;99643.59;;;41.08;23.51
7180;BME280;3631;42.152;24.756;2022-09-09T08:31:08;99624.78;;;39.76;24.48
7180;BME280;3631;42.152;24.756;2022-09-09T08:33:36;99616.63;;;38.92;25.56
7180;BME280;3631;42.152;24.756;2022-09-09T08:36:04;99616.50;;;38.05;26.24
7180;BME280;3631;42.152;24.756;2022-09-09T08:38:32;99619.75;;;37.44;27.06
7180;BME280;3631;42.152;24.756;2022-09-09T08:41:09;99607.44;;;35.44;30.11
7180;BME280;3631;42.152;24.756;2022-09-09T08:43:43;99602.31;;;32.72;33.65
7180;BME280;3631;42.152;24.756;2022-09-09T08:46:21;99598.38;;;31.38;36.26
7180;BME280;3631;42.152;24.756;2022-09-09T08:48:56;99596.59;;;30.75;38.00
7180;BME280;3631;42.152;24.756;2022-09-09T08:51:27;99594.28;;;30.31;39.46
7180;BME280;3631;42.152;24.756;2022-09-09T08:53:58;99595.63;;;30.19;39.78
7180;BME280;3631;42.152;24.756;2022-09-09T08:56:31;99596.16;;;30.23;39.94
7180;BME280;3631;42.152;24.756;2022-09-09T08:59:00;99592.03;;;30.92;38.61
7180;BME280;3631;42.152;24.756;2022-09-09T09:01:39;99579.75;;;31.45;37.72
7180;BME280;3631;42.152;24.756;2022-09-09T09:04:19;99591.94;;;31.86;36.89
7180;BME280;3631;42.152;24.756;2022-09-09T09:06:56;99593.59;;;31.56;37.97
7180;BME280;3631;42.152;24.756;2022-09-09T09:09:33;99578.38;;;30.46;39.85
7180;BME280;3631;42.152;24.756;2022-09-09T09:12:15;99583.31;;;29.10;42.98
7180;BME280;3631;42.152;24.756;2022-09-09T09:14:43;99578.47;;;28.79;44.24
7180;BME280;3631;42.152;24.756;2022-09-09T09:17:14;99574.44;;;28.75;44.47
7180;BME280;3631;42.152;24.756;2022-09-09T09:19:45;99569.28;;;28.56;45.19
7180;BME280;3631;42.152;24.756;2022-09-09T09:22:17;99562.88;;;28.67;45.09
7180;BME280;3631;42.152;24.756;2022-09-09T09:24:51;99559.41;;;28.74;44.92
7180;BME280;3631;42.152;24.756;2022-09-09T09:27:26;99547.47;;;28.61;45.85
7180;BME280;3631;42.152;24.756;2022-09-09T09:29:58;99534.13;;;28.95;45.24
7180;BME280;3631;42.152;24.756;2022-09-09T09:32:28;99542.94;;;29.21;44.26
7180;BME280;3631;42.152;24.756;2022-09-09T09:34:58;99540.41;;;29.11;44.50
7180;BME280;3631;42.152;24.756;2022-09-09T09:37:32;99543.69;;;29.47;43.94
7180;BME280;3631;42.152;24.756;2022-09-09T09:40:08;99545.13;;;31.58;39.45
7180;BME280;3631;42.152;24.756;2022-09-09T09:42:37;99522.50;;;32.73;36.58
7180;BME280;3631;42.152;24.756;2022-09-09T09:45:16;99541.59;;;33.65;35.22
7180;BME280;3631;42.152;24.756;2022-09-09T09:47:43;99547.41;;;32.96;35.94
7180;BME280;3631;42.152;24.756;2022-09-09T09:50:16;99535.38;;;31.65;38.40
7180;BME280;3631;42.152;24.756;2022-09-09T09:52:53;99522.97;;;30.94;40.19
7180;BME280;3631;42.152;24.756;2022-09-09T09:55:21;99514.44;;;30.27;41.79
7180;BME280;3631;42.152;24.756;2022-09-09T09:57:51;99510.94;;;29.94;43.45
7180;BME280;3631;42.152;24.756;2022-09-09T10:00:20;99502.72;;;29.47;43.64
7180;BME280;3631;42.152;24.756;2022-09-09T10:02:48;99495.81;;;29.36;44.23
7180;BME280;3631;42.152;24.756;2022-09-09T10:05:20;99499.94;;;29.06;45.44
7180;BME280;3631;42.152;24.756;2022-09-09T10:08:00;99497.44;;;29.05;45.73
7180;BME280;3631;42.152;24.756;2022-09-09T10:10:42;99491.03;;;28.89;46.32
7180;BME280;3631;42.152;24.756;2022-09-09T10:13:20;99490.09;;;28.73;47.10
7180;BME280;3631;42.152;24.756;2022-09-09T10:15:59;99487.31;;;28.48;48.00
7180;BME280;3631;42.152;24.756;2022-09-09T10:18:39;99481.63;;;28.43;48.63
7180;BME280;3631;42.152;24.756;2022-09-09T10:21:19;99490.81;;;28.49;48.79
7180;BME280;3631;42.152;24.756;2022-09-09T10:24:00;99484.47;;;28.42;49.70
7180;BME280;3631;42.152;24.756;2022-09-09T10:26:38;99470.44;;;28.40;49.45
7180;BME280;3631;42.152;24.756;2022-09-09T10:29:34;99491.41;;;28.35;49.77
7180;BME280;3631;42.152;24.756;2022-09-09T10:32:21;99488.44;;;28.38;50.50
7180;BME280;3631;42.152;24.756;2022-09-09T10:34:56;99490.03;;;28.57;50.26
7180;BME280;3631;42.152;24.756;2022-09-09T10:37:36;99480.09;;;28.75;49.82
7180;BME280;3631;42.152;24.756;2022-09-09T10:40:21;99477.84;;;28.54;50.15
7180;BME280;3631;42.152;24.756;2022-09-09T10:42:53;99482.81;;;28.49;49.74
7180;BME280;3631;42.152;24.756;2022-09-09T10:45:30;99478.63;;;28.46;50.57
7180;BME280;3631;42.152;24.756;2022-09-09T10:48:27;99471.88;;;28.68;50.14
7180;BME280;3631;42.152;24.756;2022-09-09T10:51:02;99474.47;;;28.78;49.44
7180;BME280;3631;42.152;24.756;2022-09-09T10:53:45;99468.94;;;28.79;49.70
7180;BME280;3631;42.152;24.756;2022-09-09T10:56:16;99461.00;;;28.96;49.08
7180;BME280;3631;42.152;24.756;2022-09-09T10:58:48;99467.63;;;28.83;49.90
7180;BME280;3631;42.152;24.756;2022-09-09T11:01:20;99433.50;;;28.69;49.72
7180;BME280;3631;42.152;24.756;2022-09-09T11:03:52;99465.66;;;28.85;49.39
7180;BME280;3631;42.152;24.756;2022-09-09T11:06:27;99458.94;;;28.81;49.70
7180;BME280;3631;42.152;24.756;2022-09-09T11:08:58;99451.25;;;28.78;49.66
7180;BME280;3631;42.152;24.756;2022-09-09T11:11:30;99449.19;;;28.72;50.19
7180;BME280;3631;42.152;24.756;2022-09-09T11:14:02;99440.19;;;28.73;50.07
7180;BME280;3631;42.152;24.756;2022-09-09T11:16:39;99444.16;;;28.69;50.04
7180;BME280;3631;42.152;24.756;2022-09-09T11:19:13;99443.75;;;28.90;49.63
7180;BME280;3631;42.152;24.756;2022-09-09T11:21:45;99433.97;;;28.99;48.80
7180;BME280;3631;42.152;24.756;2022-09-09T11:24:16;99429.78;;;29.04;48.30
7180;BME280;3631;42.152;24.756;2022-09-09T11:26:53;99423.63;;;29.12;48.83
7180;BME280;3631;42.152;24.756;2022-09-09T11:29:45;99419.75;;;29.06;49.27
7180;BME280;3631;42.152;24.756;2022-09-09T11:35:27;99415.56;;;28.87;48.94
7180;BME280;3631;42.152;24.756;2022-09-09T11:38:15;99408.56;;;28.95;49.33
7180;BME280;3631;42.152;24.756;2022-09-09T11:40:44;99416.41;;;29.04;48.84
7180;BME280;3631;42.152;24.756;2022-09-09T11:43:13;99410.91;;;28.98;48.50
7180;BME280;3631;42.152;24.756;2022-09-09T11:45:43;99419.59;;;29.08;48.88
7180;BME280;3631;42.152;24.756;2022-09-09T11:48:23;99408.22;;;29.06;49.07
7180;BME280;3631;42.152;24.756;2022-09-09T11:51:02;99407.41;;;29.05;48.84
7180;BME280;3631;42.152;24.756;2022-09-09T11:53:31;99412.41;;;29.00;49.19
7180;BME280;3631;42.152;24.756;2022-09-09T11:56:07;99399.06;;;29.08;48.66
7180;BME280;3631;42.152;24.756;2022-09-09T11:58:41;99396.44;;;29.41;48.12
7180;BME280;3631;42.152;24.756;2022-09-09T12:01:24;99397.44;;;29.64;47.58
7180;BME280;3631;42.152;24.756;2022-09-09T12:04:01;99390.06;;;29.50;48.15
7180;BME280;3631;42.152;24.756;2022-09-09T12:06:41;99385.06;;;29.39;47.77
7180;BME280;3631;42.152;24.756;2022-09-09T12:09:19;99375.50;;;29.28;47.83
7180;BME280;3631;42.152;24.756;2022-09-09T12:11:49;99373.88;;;29.43;48.10
7180;BME280;3631;42.152;24.756;2022-09-09T12:14:23;99372.81;;;29.69;47.07
7180;BME280;3631;42.152;24.756;2022-09-09T12:17:10;99369.16;;;29.61;47.47
7180;BME280;3631;42.152;24.756;2022-09-09T12:19:45;99373.84;;;29.59;47.32
7180;BME280;3631;42.152;24.756;2022-09-09T12:22:19;99371.34;;;29.66;47.63
7180;BME280;3631;42.152;24.756;2022-09-09T12:24:57;99370.34;;;29.67;47.80
7180;BME280;3631;42.152;24.756;2022-09-09T12:27:29;99364.47;;;29.72;47.86
7180;BME280;3631;42.152;24.756;2022-09-09T12:30:03;99343.13;;;29.55;47.50
7180;BME280;3631;42.152;24.756;2022-09-09T12:32:31;99357.44;;;29.71;47.52
7180;BME280;3631;42.152;24.756;2022-09-09T12:35:02;99349.09;;;29.57;47.36
7180;BME280;3631;42.152;24.756;2022-09-09T12:37:35;99351.63;;;29.59;47.82
7180;BME280;3631;42.152;24.756;2022-09-09T12:40:04;99350.06;;;29.81;47.72
7180;BME280;3631;42.152;24.756;2022-09-09T12:42:32;99355.41;;;29.81;47.48
7180;BME280;3631;42.152;24.756;2022-09-09T12:45:00;99353.44;;;29.58;47.80
7180;BME280;3631;42.152;24.756;2022-09-09T12:47:37;99342.78;;;29.50;48.07
7180;BME280;3631;42.152;24.756;2022-09-09T12:50:15;99344.59;;;29.66;48.12
7180;BME280;3631;42.152;24.756;2022-09-09T12:52:44;99332.25;;;29.41;48.30
7180;BME280;3631;42.152;24.756;2022-09-09T12:55:18;99328.75;;;29.40;48.11
7180;BME280;3631;42.152;24.756;2022-09-09T12:57:50;99321.38;;;29.50;48.21
7180;BME280;3631;42.152;24.756;2022-09-09T13:00:22;99316.66;;;29.69;47.65
7180;BME280;3631;42.152;24.756;2022-09-09T13:02:56;99317.38;;;29.54;47.81
7180;BME280;3631;42.152;24.756;2022-09-09T13:05:26;99313.97;;;29.69;47.96
7180;BME280;3631;42.152;24.756;2022-09-09T13:08:02;99298.59;;;29.79;47.32
7180;BME280;3631;42.152;24.756;2022-09-09T13:10:33;99323.94;;;30.07;46.96
7180;BME280;3631;42.152;24.756;2022-09-09T13:13:01;99322.03;;;30.16;47.20
7180;BME280;3631;42.152;24.756;2022-09-09T13:15:29;99320.59;;;30.05;46.88
7180;BME280;3631;42.152;24.756;2022-09-09T13:17:57;99315.72;;;30.09;46.76
7180;BME280;3631;42.152;24.756;2022-09-09T13:20:27;99309.53;;;30.08;46.91
7180;BME280;3631;42.152;24.756;2022-09-09T13:22:55;99298.50;;;30.03;46.94
7180;BME280;3631;42.152;24.756;2022-09-09T13:25:26;99303.34;;;30.08;47.36
7180;BME280;3631;42.152;24.756;2022-09-09T13:27:59;99282.78;;;29.92;47.26
7180;BME280;3631;42.152;24.756;2022-09-09T13:30:29;99307.56;;;29.94;47.69
7180;BME280;3631;42.152;24.756;2022-09-09T13:33:05;99309.41;;;30.02;48.98
7180;BME280;3631;42.152;24.756;2022-09-09T13:35:33;99306.91;;;30.00;47.57
7180;BME280;3631;42.152;24.756;2022-09-09T13:38:07;99296.81;;;30.10;47.52